createdAt,value
2023-06-17T00:01:20.643Z,97574.94
2023-06-17T00:03:48.264Z,97576.16
2023-06-17T00:06:15.800Z,97582.72
2023-06-17T00:08:43.344Z,97575.19
2023-06-17T00:11:11.159Z,97576.63
2023-06-17T00:13:40.114Z,97574.97
2023-06-17T00:16:07.721Z,97575.44
2023-06-17T00:18:35.245Z,97573.53
2023-06-17T00:21:03.227Z,97569.59
2023-06-17T00:23:32.039Z,97570.00
2023-06-17T00:25:59.563Z,97576.41
2023-06-17T00:28:27.051Z,97576.91
2023-06-17T00:30:55.924Z,97581.78
2023-06-17T00:33:23.735Z,97580.94
2023-06-17T00:35:52.982Z,97573.56
2023-06-17T00:38:22.472Z,97578.69
2023-06-17T00:40:49.994Z,97577.03
2023-06-17T00:43:17.513Z,97582.75
2023-06-17T00:45:45.089Z,97578.69
2023-06-17T00:48:14.746Z,97581.78
2023-06-17T00:50:45.187Z,97580.84
2023-06-17T00:53:13.424Z,97579.88
2023-06-17T00:55:41.121Z,97580.97
2023-06-17T00:58:09.318Z,97575.72
2023-06-17T01:00:37.019Z,97572.88
2023-06-17T01:03:06.429Z,97575.94
2023-06-17T01:05:35.872Z,97565.75
2023-06-17T01:08:13.942Z,97576.19
2023-06-17T01:10:49.813Z,97572.63
2023-06-17T01:13:18.771Z,97572.72
2023-06-17T01:15:47.371Z,97574.72
2023-06-17T01:18:18.903Z,97573.53
2023-06-17T01:20:52.781Z,97576.00
2023-06-17T01:23:22.396Z,97567.47
2023-06-17T01:25:52.384Z,97565.88
2023-06-17T01:28:21.575Z,97570.06
2023-06-17T01:30:49.258Z,97572.09
2023-06-17T01:33:17.147Z,97554.59
2023-06-17T01:35:53.256Z,97558.97
2023-06-17T01:38:26.388Z,97565.03
2023-06-17T01:41:02.664Z,97568.47
2023-06-17T01:43:32.105Z,97573.53
2023-06-17T01:46:01.823Z,97575.63
2023-06-17T01:48:29.475Z,97572.41
2023-06-17T01:50:57.116Z,97563.19
2023-06-17T01:53:26.061Z,97569.69
2023-06-17T01:55:55.789Z,97573.09
2023-06-17T01:58:23.327Z,97576.63
2023-06-17T02:00:50.696Z,97578.81
2023-06-17T02:03:18.577Z,97570.50
2023-06-17T02:05:46.204Z,97577.25
2023-06-17T02:08:15.900Z,97576.50
2023-06-17T02:10:43.263Z,97576.78
2023-06-17T02:13:11.998Z,97576.56
2023-06-17T02:15:43.363Z,97568.25
2023-06-17T02:18:15.642Z,97575.34
2023-06-17T02:20:46.297Z,97568.59
2023-06-17T02:23:13.761Z,97566.81
2023-06-17T02:25:41.345Z,97568.31
2023-06-17T02:28:09.109Z,97565.38
2023-06-17T02:30:37.950Z,97563.69
2023-06-17T02:33:06.672Z,97570.53
2023-06-17T02:35:34.296Z,97566.34
2023-06-17T02:38:01.713Z,97559.91
2023-06-17T02:40:29.612Z,97561.44
2023-06-17T02:42:57.109Z,97565.38
2023-06-17T02:45:24.501Z,97558.09
2023-06-17T02:47:53.344Z,97556.00
2023-06-17T02:50:21.758Z,97559.56
2023-06-17T02:52:56.904Z,97557.50
2023-06-17T02:55:26.566Z,97558.63
2023-06-17T02:57:54.605Z,97564.69
2023-06-17T03:00:23.919Z,97562.25
2023-06-17T03:02:53.308Z,97557.66
2023-06-17T03:05:20.977Z,97566.44
2023-06-17T03:07:49.267Z,97561.78
2023-06-17T03:10:19.292Z,97561.22
2023-06-17T03:12:53.479Z,97559.75
2023-06-17T03:15:22.070Z,97556.66
2023-06-17T03:17:49.885Z,97558.56
2023-06-17T03:20:19.560Z,97559.16
2023-06-17T03:22:48.653Z,97563.78
2023-06-17T03:25:16.367Z,97555.63
2023-06-17T03:27:43.758Z,97561.06
2023-06-17T03:30:12.733Z,97563.78
2023-06-17T03:32:40.259Z,97566.72
2023-06-17T03:35:08.933Z,97560.66
2023-06-17T03:37:37.679Z,97558.03
2023-06-17T03:40:06.762Z,97558.41
2023-06-17T03:42:36.526Z,97561.81
2023-06-17T03:45:04.359Z,97562.56
2023-06-17T03:47:32.322Z,97559.91
2023-06-17T03:50:00.653Z,97559.97
2023-06-17T03:52:30.031Z,97557.78
2023-06-17T03:54:58.909Z,97568.03
2023-06-17T03:57:27.617Z,97565.94
2023-06-17T03:59:55.165Z,97563.16
2023-06-17T04:02:23.682Z,97567.09
2023-06-17T04:04:53.786Z,97558.28
2023-06-17T04:07:22.001Z,97561.78
2023-06-17T04:10:02.194Z,97565.75
2023-06-17T04:12:36.573Z,97567.03
2023-06-17T04:15:06.310Z,97562.78
2023-06-17T04:17:34.012Z,97564.44
2023-06-17T04:20:12.542Z,97574.09
2023-06-17T04:22:42.616Z,97556.53
2023-06-17T04:25:13.596Z,97575.44
2023-06-17T04:27:46.639Z,97573.63
2023-06-17T04:30:16.260Z,97577.31
2023-06-17T04:32:44.673Z,97574.13
2023-06-17T04:35:14.270Z,97578.81
2023-06-17T04:37:55.024Z,97580.31
2023-06-17T04:40:24.250Z,97576.91
2023-06-17T04:42:53.782Z,97580.34
2023-06-17T04:45:22.626Z,97575.84
2023-06-17T04:47:56.089Z,97577.44
2023-06-17T04:50:24.946Z,97574.53
2023-06-17T04:52:52.989Z,97578.38
2023-06-17T04:55:23.027Z,97579.59
2023-06-17T04:57:51.358Z,97579.63
2023-06-17T05:00:40.644Z,97568.69
2023-06-17T05:03:09.078Z,97574.66
2023-06-17T05:05:37.974Z,97571.56
2023-06-17T05:08:05.722Z,97567.16
2023-06-17T05:10:33.099Z,97561.25
2023-06-17T05:13:00.704Z,97566.09
2023-06-17T05:15:30.340Z,97568.72
2023-06-17T05:17:59.903Z,97563.81
2023-06-17T05:20:27.899Z,97567.50
2023-06-17T05:22:56.017Z,97577.97
2023-06-17T05:25:23.727Z,97578.06
2023-06-17T05:27:51.606Z,97585.03
2023-06-17T05:30:20.332Z,97577.34
2023-06-17T05:32:50.486Z,97573.69
2023-06-17T05:35:19.682Z,97578.75
2023-06-17T05:37:47.276Z,97578.09
2023-06-17T05:40:15.191Z,97578.31
2023-06-17T05:42:42.628Z,97577.56
2023-06-17T05:45:10.479Z,97572.03
2023-06-17T05:47:38.074Z,97576.47
2023-06-17T05:50:06.255Z,97570.72
2023-06-17T05:52:36.079Z,97578.94
2023-06-17T05:55:03.749Z,97575.47
2023-06-17T05:57:31.611Z,97576.88
2023-06-17T05:59:59.169Z,97572.44
2023-06-17T06:02:26.721Z,97580.41
2023-06-17T06:04:54.295Z,97570.22
2023-06-17T06:07:21.890Z,97570.53
2023-06-17T06:09:50.839Z,97577.28
2023-06-17T06:12:18.308Z,97575.38
2023-06-17T06:14:45.848Z,97584.28
2023-06-17T06:17:13.905Z,97580.81
2023-06-17T06:19:41.368Z,97577.28
2023-06-17T06:22:08.985Z,97583.03
2023-06-17T06:24:36.458Z,97585.03
2023-06-17T06:27:06.054Z,97585.53
2023-06-17T06:29:34.058Z,97581.09
2023-06-17T06:32:01.604Z,97579.06
2023-06-17T06:34:29.730Z,97580.91
2023-06-17T06:36:59.271Z,97593.38
2023-06-17T06:39:27.420Z,97588.97
2023-06-17T06:41:55.940Z,97586.31
2023-06-17T06:44:39.505Z,97590.53
2023-06-17T06:47:08.544Z,97586.00
2023-06-17T06:49:36.133Z,97582.31
2023-06-17T06:52:04.394Z,97586.63
2023-06-17T06:54:32.138Z,97589.81
2023-06-17T06:56:59.696Z,97586.31
2023-06-17T06:59:28.099Z,97584.75
2023-06-17T07:01:57.576Z,97585.84
2023-06-17T07:04:25.359Z,97594.94
2023-06-17T07:06:59.540Z,97593.84
2023-06-17T07:09:32.260Z,97594.63
2023-06-17T07:11:59.900Z,97585.72
2023-06-17T07:14:27.465Z,97598.41
2023-06-17T07:16:59.189Z,97592.97
2023-06-17T07:19:27.724Z,97602.53
2023-06-17T07:21:55.980Z,97598.63
2023-06-17T07:24:24.338Z,97587.78
2023-06-17T07:26:54.931Z,97592.88
2023-06-17T07:29:22.417Z,97588.41
2023-06-17T07:31:50.007Z,97584.00
2023-06-17T07:34:23.167Z,97590.19
2023-06-17T07:36:55.056Z,97588.53
2023-06-17T07:39:26.198Z,97579.00
2023-06-17T07:41:53.482Z,97592.19
2023-06-17T07:44:21.071Z,97582.00
2023-06-17T07:46:48.578Z,97581.31
2023-06-17T07:49:16.221Z,97576.94
2023-06-17T07:51:45.114Z,97577.47
2023-06-17T07:54:12.712Z,97570.50
2023-06-17T07:56:40.178Z,97577.13
2023-06-17T07:59:07.784Z,97574.75
2023-06-17T08:01:36.429Z,97569.13
2023-06-17T08:04:04.483Z,97575.16
2023-06-17T08:06:31.955Z,97567.84
2023-06-17T08:09:04.203Z,97572.41
2023-06-17T08:11:31.675Z,97569.78
2023-06-17T08:13:59.164Z,97565.47
2023-06-17T08:16:26.692Z,97576.75
2023-06-17T08:18:54.272Z,97566.38
2023-06-17T08:21:22.013Z,97569.47
2023-06-17T08:23:52.326Z,97566.50
2023-06-17T08:26:21.280Z,97562.38
2023-06-17T08:28:48.933Z,97570.47
2023-06-17T08:31:17.773Z,97560.22
2023-06-17T08:33:45.258Z,97563.66
2023-06-17T08:36:12.773Z,97553.16
2023-06-17T08:38:40.329Z,97558.63
2023-06-17T08:41:07.662Z,97548.81
2023-06-17T08:43:38.466Z,97554.09
2023-06-17T08:46:07.156Z,97548.88
2023-06-17T08:48:36.962Z,97548.16
2023-06-17T08:51:05.929Z,97551.47
2023-06-17T08:53:33.799Z,97547.81
2023-06-17T08:56:01.210Z,97540.47
2023-06-17T08:58:28.860Z,97544.19
2023-06-17T09:00:59.152Z,97544.44
2023-06-17T09:03:26.713Z,97541.41
2023-06-17T09:05:54.550Z,97544.25
2023-06-17T09:08:22.321Z,97538.00
2023-06-17T09:10:49.722Z,97539.41
2023-06-17T09:13:17.043Z,97532.75
2023-06-17T09:15:44.721Z,97547.78
2023-06-17T09:18:17.063Z,97540.53
2023-06-17T09:20:52.732Z,97533.31
2023-06-17T09:23:20.425Z,97538.22
2023-06-17T09:25:47.984Z,97530.59
2023-06-17T09:28:17.746Z,97537.38
2023-06-17T09:30:54.475Z,97537.50
2023-06-17T09:33:24.613Z,97533.84
2023-06-17T09:36:01.978Z,97522.56
2023-06-17T09:38:29.409Z,97520.22
2023-06-17T09:40:57.797Z,97526.31
2023-06-17T09:43:28.632Z,97523.84
2023-06-17T09:46:00.643Z,97518.59
2023-06-17T09:48:36.511Z,97514.91
2023-06-17T09:51:10.527Z,97527.22
2023-06-17T09:53:38.970Z,97519.72
2023-06-17T09:56:12.275Z,97510.28
2023-06-17T09:58:44.596Z,97517.16
2023-06-17T10:01:13.165Z,97518.06
2023-06-17T10:03:42.196Z,97513.41
2023-06-17T10:06:11.104Z,97503.97
2023-06-17T10:08:41.378Z,97515.13
2023-06-17T10:11:10.742Z,97509.09
2023-06-17T10:13:40.795Z,97496.69
2023-06-17T10:16:11.854Z,97495.13
2023-06-17T10:18:40.987Z,97497.56
2023-06-17T10:21:12.997Z,97485.94
2023-06-17T10:23:42.610Z,97481.84
2023-06-17T10:26:12.973Z,97479.72
2023-06-17T10:28:45.693Z,97475.78
2023-06-17T10:31:27.615Z,97477.91
2023-06-17T10:33:58.603Z,97477.81
2023-06-17T10:36:27.909Z,97487.00
2023-06-17T10:38:59.484Z,97486.25
2023-06-17T10:41:58.480Z,97481.16
2023-06-17T10:44:41.330Z,97471.34
2023-06-17T10:47:25.645Z,97477.59
2023-06-17T10:49:54.188Z,97474.09
2023-06-17T10:52:23.125Z,97468.53
2023-06-17T10:54:53.176Z,97463.28
2023-06-17T10:57:38.644Z,97466.09
2023-06-17T11:00:09.877Z,97447.84
2023-06-17T11:02:38.721Z,97461.38
2023-06-17T11:05:08.007Z,97453.97
2023-06-17T11:07:36.936Z,97451.94
2023-06-17T11:10:06.113Z,97445.59
2023-06-17T11:12:35.839Z,97448.97
2023-06-17T11:15:05.514Z,97449.34
2023-06-17T11:17:33.046Z,97442.44
2023-06-17T11:20:00.972Z,97445.13
2023-06-17T11:22:28.881Z,97438.72
2023-06-17T11:24:59.144Z,97444.75
2023-06-17T11:27:28.541Z,97449.94
2023-06-17T11:29:56.302Z,97447.75
2023-06-17T11:32:24.486Z,97449.63
2023-06-17T11:34:53.101Z,97444.47
2023-06-17T11:37:20.665Z,97435.03
2023-06-17T11:39:48.241Z,97437.03
2023-06-17T11:42:17.450Z,97423.06
2023-06-17T11:44:45.749Z,97431.06
2023-06-17T11:47:13.220Z,97429.09
2023-06-17T11:49:45.035Z,97421.88
2023-06-17T11:52:13.246Z,97426.06
2023-06-17T11:54:49.700Z,97418.75
2023-06-17T11:57:19.571Z,97421.50
2023-06-17T11:59:47.117Z,97420.72
2023-06-17T12:02:15.277Z,97416.16
2023-06-17T12:04:44.129Z,97424.16
2023-06-17T12:07:11.783Z,97410.47
2023-06-17T12:09:49.306Z,97429.97
2023-06-17T12:12:27.845Z,97416.16
2023-06-17T12:15:00.966Z,97418.72
2023-06-17T12:17:43.579Z,97418.50
2023-06-17T12:20:16.124Z,97416.72
2023-06-17T12:22:44.128Z,97420.69
2023-06-17T12:25:15.146Z,97421.13
2023-06-17T12:27:44.224Z,97425.31
2023-06-17T12:30:12.903Z,97426.28
2023-06-17T12:32:44.316Z,97415.72
2023-06-17T12:35:12.981Z,97403.97
2023-06-17T12:37:42.288Z,97404.75
2023-06-17T12:40:10.934Z,97401.38
2023-06-17T12:42:38.441Z,97401.25
2023-06-17T12:45:08.772Z,97401.25
2023-06-17T12:47:38.674Z,97400.28
2023-06-17T12:50:07.140Z,97397.69
2023-06-17T12:52:35.491Z,97394.88
2023-06-17T12:55:05.691Z,97406.16
2023-06-17T12:57:34.286Z,97391.19
2023-06-17T13:00:01.872Z,97397.72
2023-06-17T13:02:33.603Z,97388.47
2023-06-17T13:05:01.107Z,97390.06
2023-06-17T13:07:28.571Z,97390.78
2023-06-17T13:09:58.241Z,97381.84
2023-06-17T13:12:25.923Z,97388.28
2023-06-17T13:14:53.377Z,97390.50
2023-06-17T13:17:20.855Z,97382.63
2023-06-17T13:19:49.764Z,97375.72
2023-06-17T13:22:17.253Z,97380.00
2023-06-17T13:24:44.712Z,97374.59
2023-06-17T13:27:16.955Z,97378.53
2023-06-17T13:29:44.560Z,97377.53
2023-06-17T13:32:12.610Z,97365.88
2023-06-17T13:34:40.045Z,97359.97
2023-06-17T13:37:08.862Z,97367.19
2023-06-17T13:39:37.069Z,97353.16
2023-06-17T13:42:05.768Z,97356.31
2023-06-17T13:44:33.213Z,97353.03
2023-06-17T13:47:00.915Z,97350.63
2023-06-17T13:49:28.377Z,97352.78
2023-06-17T13:51:56.360Z,97351.25
2023-06-17T13:54:25.321Z,97349.81
2023-06-17T13:56:52.989Z,97349.78
2023-06-17T13:59:21.376Z,97339.59
2023-06-17T14:01:49.000Z,97355.34
2023-06-17T14:04:16.842Z,97351.13
2023-06-17T14:06:47.159Z,97347.00
2023-06-17T14:09:14.966Z,97341.75
2023-06-17T14:11:43.856Z,97334.28
2023-06-17T14:14:11.258Z,97338.53
2023-06-17T14:16:38.766Z,97340.72
2023-06-17T14:19:06.328Z,97342.00
2023-06-17T14:21:36.321Z,97341.00
2023-06-17T14:24:05.020Z,97332.00
2023-06-17T14:26:34.785Z,97344.56
2023-06-17T14:29:04.821Z,97344.41
2023-06-17T14:31:32.490Z,97341.72
2023-06-17T14:34:00.643Z,97339.19
2023-06-17T14:36:28.826Z,97332.75
2023-06-17T14:38:56.675Z,97321.88
2023-06-17T14:41:24.112Z,97338.94
2023-06-17T14:43:51.595Z,97328.19
2023-06-17T14:46:20.695Z,97330.72
2023-06-17T14:48:48.339Z,97329.66
2023-06-17T14:51:15.807Z,97328.44
2023-06-17T14:53:43.368Z,97324.00
2023-06-17T14:56:29.585Z,97315.97
2023-06-17T14:58:57.280Z,97316.09
2023-06-17T15:01:33.153Z,97318.59
2023-06-17T15:04:01.305Z,97315.31
2023-06-17T15:06:29.023Z,97319.09
2023-06-17T15:09:18.677Z,97315.25
2023-06-17T15:11:46.929Z,97314.13
2023-06-17T15:14:14.399Z,97309.81
2023-06-17T15:16:43.227Z,97311.75
2023-06-17T15:19:10.979Z,97304.81
2023-06-17T15:21:38.771Z,97310.69
2023-06-17T15:24:07.072Z,97313.56
2023-06-17T15:26:34.685Z,97313.44
2023-06-17T15:29:02.175Z,97298.38
2023-06-17T15:31:29.739Z,97306.53
2023-06-17T15:33:59.696Z,97301.16
2023-06-17T15:36:27.412Z,97298.78
2023-06-17T15:38:58.431Z,97288.94
2023-06-17T15:41:26.197Z,97293.47
2023-06-17T15:43:54.271Z,97292.28
2023-06-17T15:46:22.280Z,97291.47
2023-06-17T15:48:51.236Z,97296.44
2023-06-17T15:51:20.058Z,97288.56
2023-06-17T15:53:48.553Z,97288.72
2023-06-17T15:56:17.046Z,97283.31
2023-06-17T15:58:44.434Z,97293.16
2023-06-17T16:01:11.939Z,97294.03
2023-06-17T16:03:40.462Z,97292.44
2023-06-17T16:06:08.084Z,97296.47
2023-06-17T16:08:37.064Z,97286.88
2023-06-17T16:11:05.268Z,97284.34
2023-06-17T16:13:32.997Z,97277.06
2023-06-17T16:16:00.669Z,97286.22
2023-06-17T16:18:28.095Z,97283.56
2023-06-17T16:20:55.852Z,97292.44
2023-06-17T16:23:23.731Z,97291.19
2023-06-17T16:25:55.806Z,97294.84
2023-06-17T16:28:23.610Z,97282.75
2023-06-17T16:30:51.325Z,97291.09
2023-06-17T16:33:18.851Z,97294.41
2023-06-17T16:35:46.252Z,97287.31
2023-06-17T16:38:13.718Z,97284.00
2023-06-17T16:40:41.192Z,97292.19
2023-06-17T16:43:09.992Z,97290.34
2023-06-17T16:45:38.217Z,97295.00
2023-06-17T16:48:08.004Z,97294.47
2023-06-17T16:50:37.246Z,97297.06
2023-06-17T16:53:04.989Z,97297.94
2023-06-17T16:55:34.320Z,97294.19
2023-06-17T16:58:01.727Z,97300.00
2023-06-17T17:00:30.697Z,97295.81
2023-06-17T17:02:58.945Z,97307.00
2023-06-17T17:05:26.473Z,97301.09
2023-06-17T17:07:54.242Z,97300.84
2023-06-17T17:10:24.824Z,97307.28
2023-06-17T17:12:52.886Z,97299.41
2023-06-17T17:15:20.762Z,97298.78
2023-06-17T17:17:49.715Z,97302.66
2023-06-17T17:20:17.506Z,97302.63
2023-06-17T17:22:45.061Z,97301.47
2023-06-17T17:25:12.641Z,97308.25
2023-06-17T17:27:40.132Z,97309.53
2023-06-17T17:30:10.067Z,97309.16
2023-06-17T17:32:37.999Z,97309.72
2023-06-17T17:35:08.498Z,97314.25
2023-06-17T17:37:36.484Z,97319.91
2023-06-17T17:40:04.554Z,97317.63
2023-06-17T17:42:32.237Z,97309.75
2023-06-17T17:44:59.622Z,97315.97
2023-06-17T17:47:26.931Z,97320.28
2023-06-17T17:49:54.386Z,97323.56
2023-06-17T17:52:23.505Z,97318.44
2023-06-17T17:55:01.912Z,97314.31
2023-06-17T17:57:30.468Z,97319.13
2023-06-17T17:59:58.074Z,97321.75
2023-06-17T18:02:25.993Z,97315.28
2023-06-17T18:04:53.689Z,97313.97
2023-06-17T18:07:21.339Z,97315.97
2023-06-17T18:09:50.243Z,97320.41
2023-06-17T18:12:17.782Z,97325.34
2023-06-17T18:14:45.156Z,97331.25
2023-06-17T18:17:12.711Z,97328.97
2023-06-17T18:19:40.600Z,97335.53
2023-06-17T18:22:08.061Z,97328.78
2023-06-17T18:24:35.569Z,97323.38
2023-06-17T18:27:05.266Z,97330.78
2023-06-17T18:29:32.802Z,97329.44
2023-06-17T18:32:00.109Z,97334.84
2023-06-17T18:34:27.720Z,97328.56
2023-06-17T18:36:56.403Z,97339.88
2023-06-17T18:39:23.827Z,97343.22
2023-06-17T18:41:51.150Z,97334.19
2023-06-17T18:44:19.868Z,97338.84
2023-06-17T18:46:47.437Z,97339.97
2023-06-17T18:49:21.593Z,97346.63
2023-06-17T18:51:49.314Z,97352.56
2023-06-17T18:54:16.776Z,97346.78
2023-06-17T18:56:44.307Z,97350.56
2023-06-17T18:59:11.672Z,97352.47
2023-06-17T19:01:40.695Z,97357.94
2023-06-17T19:04:09.707Z,97363.03
2023-06-17T19:06:37.911Z,97361.63
2023-06-17T19:09:06.545Z,97363.94
2023-06-17T19:11:34.279Z,97365.22
2023-06-17T19:14:02.776Z,97363.97
2023-06-17T19:16:30.673Z,97366.25
2023-06-17T19:18:59.513Z,97363.34
2023-06-17T19:21:27.094Z,97376.47
2023-06-17T19:23:54.551Z,97375.28
2023-06-17T19:26:22.346Z,97373.91
2023-06-17T19:28:49.870Z,97379.38
2023-06-17T19:31:17.497Z,97374.63
2023-06-17T19:33:44.924Z,97383.06
2023-06-17T19:36:13.723Z,97385.47
2023-06-17T19:38:41.193Z,97390.88
2023-06-17T19:41:08.625Z,97389.38
2023-06-17T19:43:36.943Z,97392.88
2023-06-17T19:46:04.572Z,97397.66
2023-06-17T19:48:32.485Z,97403.00
2023-06-17T19:51:02.823Z,97399.59
2023-06-17T19:53:31.719Z,97401.94
2023-06-17T19:55:59.187Z,97411.41
2023-06-17T19:58:26.693Z,97407.31
2023-06-17T20:00:55.010Z,97411.22
2023-06-17T20:03:22.743Z,97417.72
2023-06-17T20:05:50.131Z,97414.72
2023-06-17T20:08:17.612Z,97407.03
2023-06-17T20:10:46.410Z,97402.75
2023-06-17T20:13:14.042Z,97412.78
2023-06-17T20:15:42.329Z,97410.34
2023-06-17T20:18:09.974Z,97413.50
2023-06-17T20:20:37.578Z,97419.91
2023-06-17T20:23:04.994Z,97419.66
2023-06-17T20:25:32.658Z,97419.44
2023-06-17T20:28:01.443Z,97424.41
2023-06-17T20:30:28.905Z,97424.19
2023-06-17T20:32:56.475Z,97425.31
2023-06-17T20:35:23.973Z,97421.19
2023-06-17T20:37:52.228Z,97425.09
2023-06-17T20:40:19.903Z,97427.84
2023-06-17T20:42:47.379Z,97427.31
2023-06-17T20:45:16.802Z,97424.81
2023-06-17T20:47:44.327Z,97425.66
2023-06-17T20:50:12.775Z,97428.13
2023-06-17T20:52:40.309Z,97419.56
2023-06-17T20:55:08.642Z,97419.03
2023-06-17T20:57:36.166Z,97417.91
2023-06-17T21:00:04.225Z,97423.13
2023-06-17T21:02:33.194Z,97417.59
2023-06-17T21:05:01.013Z,97423.91
2023-06-17T21:07:28.485Z,97426.09
2023-06-17T21:09:56.480Z,97425.50
2023-06-17T21:12:23.956Z,97428.50
2023-06-17T21:14:51.520Z,97424.13
2023-06-17T21:17:19.080Z,97435.09
2023-06-17T21:19:47.879Z,97431.19
2023-06-17T21:22:15.610Z,97438.06
2023-06-17T21:24:43.105Z,97439.66
2023-06-17T21:27:11.922Z,97442.97
2023-06-17T21:29:40.145Z,97430.56
2023-06-17T21:32:09.940Z,97432.69
2023-06-17T21:34:37.492Z,97438.19
2023-06-17T21:37:06.595Z,97431.59
2023-06-17T21:39:34.157Z,97427.75
2023-06-17T21:42:01.715Z,97434.59
2023-06-17T21:44:29.099Z,97428.75
2023-06-17T21:46:56.519Z,97430.31
2023-06-17T21:49:23.982Z,97436.00
2023-06-17T21:51:51.398Z,97432.38
2023-06-17T21:54:20.955Z,97439.72
2023-06-17T21:56:48.525Z,97427.94
2023-06-17T21:59:15.959Z,97424.66
2023-06-17T22:01:43.483Z,97429.84
2023-06-17T22:04:10.976Z,97425.44
2023-06-17T22:06:38.415Z,97428.72
2023-06-17T22:09:05.918Z,97427.03
2023-06-17T22:11:34.791Z,97429.97
2023-06-17T22:14:02.463Z,97434.09
2023-06-17T22:16:29.913Z,97435.09
2023-06-17T22:18:57.654Z,97427.88
2023-06-17T22:21:25.186Z,97434.94
2023-06-17T22:23:52.729Z,97435.38
2023-06-17T22:26:20.442Z,97426.84
2023-06-17T22:28:49.250Z,97441.13
2023-06-17T22:31:16.652Z,97441.06
2023-06-17T22:33:44.072Z,97437.50
2023-06-17T22:36:11.638Z,97441.00
2023-06-17T22:38:39.052Z,97437.09
2023-06-17T22:41:06.603Z,97442.78
2023-06-17T22:43:34.077Z,97440.06
2023-06-17T22:46:03.998Z,97436.22
2023-06-17T22:48:31.502Z,97433.19
2023-06-17T22:50:59.471Z,97431.28
2023-06-17T22:53:26.955Z,97429.03
2023-06-17T22:55:54.679Z,97428.28
2023-06-17T22:58:22.095Z,97429.88
2023-06-17T23:00:49.508Z,97421.41
2023-06-17T23:03:18.396Z,97420.81
2023-06-17T23:05:46.050Z,97423.75
2023-06-17T23:08:13.484Z,97424.28
2023-06-17T23:10:40.939Z,97431.69
2023-06-17T23:13:08.618Z,97431.88
2023-06-17T23:15:38.485Z,97428.22
2023-06-17T23:18:06.469Z,97429.78
2023-06-17T23:20:35.367Z,97429.19
2023-06-17T23:23:04.964Z,97430.03
2023-06-17T23:25:32.845Z,97430.84
2023-06-17T23:28:00.507Z,97426.38
2023-06-17T23:30:28.773Z,97428.50
2023-06-17T23:32:56.292Z,97428.38
2023-06-17T23:35:23.747Z,97426.69
2023-06-17T23:37:52.559Z,97418.97
2023-06-17T23:40:20.171Z,97417.66
2023-06-17T23:42:47.843Z,97425.09
2023-06-17T23:45:15.644Z,97414.41
2023-06-17T23:47:43.564Z,97413.91
2023-06-17T23:50:11.192Z,97412.25
2023-06-17T23:52:38.574Z,97416.22
2023-06-17T23:55:07.995Z,97420.06
2023-06-17T23:57:35.587Z,97421.22
